.
WxDataArchive / Data Records for 2015-12-09
2015-12-08 December 2015 2015-12-10

Data Records for Wednesday, 09 December 2015

Time	Temp	Chill	HIndex	Humid	Dewpt	 Wind 	HiWind	WindDir	Rain 	Barom
-----	----	-----	------	-----	-----	------	------	-------	-----	-----
00:00	44.1	44.1	44.1	77	37.4	0	1	270	0.00	29.864 
00:05	44.1	44.1	44.1	77	37.4	0	1	270	0.00	29.864 
00:10	43.9	43.9	43.9	77	37.2	0	1	270	0.00	29.864 
00:15	43.6	43.6	43.6	77	36.9	0	1	270	0.00	29.859 
00:20	43.5	43.5	43.5	78	37.1	0	1	270	0.00	29.859 
00:25	43.3	43.3	43.3	78	36.9	0	1	270	0.00	29.859 
00:30	43.3	43.3	43.3	78	36.9	0	1	270	0.00	29.857 
00:35	43.2	43.2	43.2	78	36.8	0	1	270	0.00	29.857 
00:40	43.2	43.2	43.2	78	36.8	0	1	270	0.00	29.857 
00:45	43.1	43.1	43.1	78	36.7	0	1	270	0.00	29.846 
00:50	42.9	42.9	42.9	78	36.5	0	0	---	0.00	29.846 
00:55	42.8	42.8	42.8	79	36.7	0	1	270	0.00	29.846 
01:00	42.8	42.8	42.8	79	36.7	0	1	270	0.00	29.843 
01:05	42.6	42.6	42.6	79	36.6	0	2	270	0.00	29.843 
01:10	42.8	42.8	42.8	79	36.7	0	2	270	0.00	29.843 
01:15	42.8	42.8	42.8	78	36.4	0	1	270	0.00	29.833 
01:20	42.8	42.8	42.8	78	36.4	0	3	135	0.00	29.833 
01:25	42.9	42.9	42.9	78	36.5	1	4	135	0.00	29.833 
01:30	43.1	43.1	43.1	78	36.7	0	1	112	0.00	29.828 
01:35	43.1	43.1	43.1	77	36.4	0	2	112	0.00	29.828 
01:40	43.1	43.1	43.1	77	36.4	0	2	112	0.00	29.828 
01:45	42.9	42.9	42.9	77	36.2	0	3	112	0.00	29.822 
01:50	42.9	42.9	42.9	77	36.2	0	0	---	0.00	29.822 
01:55	42.8	42.8	42.8	77	36.1	0	3	112	0.00	29.822 
02:00	42.9	42.9	42.9	77	36.2	0	2	112	0.00	29.813 
02:05	42.9	42.9	42.9	77	36.2	0	3	112	0.00	29.813 
02:10	43.1	43.1	43.1	77	36.4	1	2	112	0.00	29.813 
02:15	43.1	43.1	43.1	77	36.4	1	2	112	0.00	29.809 
02:20	43.1	43.1	43.1	77	36.4	0	2	112	0.00	29.809 
02:25	43.1	43.1	43.1	77	36.4	1	3	112	0.00	29.809 
02:30	43.1	43.1	43.1	77	36.4	0	2	112	0.00	29.797 
02:35	42.9	42.9	42.9	77	36.2	0	1	112	0.00	29.797 
02:40	43.1	43.1	43.1	77	36.4	0	2	112	0.00	29.797 
02:45	43.1	43.1	43.1	76	36.1	1	4	112	0.00	29.791 
02:50	43.1	43.1	43.1	76	36.1	1	3	90	0.00	29.791 
02:55	42.9	42.9	42.9	76	35.9	0	2	90	0.00	29.791 
03:00	42.9	42.9	42.9	76	35.9	0	2	90	0.00	29.783 
03:05	42.8	42.8	42.8	76	35.8	0	3	90	0.00	29.783 
03:10	42.8	42.8	42.8	76	35.8	1	3	90	0.00	29.783 
03:15	42.8	42.8	42.8	76	35.8	0	2	90	0.00	29.780 
03:20	42.8	42.8	42.8	76	35.8	0	3	90	0.00	29.780 
03:25	42.8	42.8	42.8	76	35.8	1	3	90	0.00	29.780 
03:30	42.8	42.8	42.8	76	35.8	0	2	90	0.00	29.779 
03:35	42.9	42.9	42.9	76	35.9	0	4	90	0.00	29.779 
03:40	43.1	43.1	43.1	76	36.1	0	3	90	0.00	29.779 
03:45	43.2	43.2	43.2	76	36.2	1	4	90	0.00	29.776 
03:50	43.2	43.2	43.2	76	36.2	0	2	90	0.00	29.776 
03:55	43.2	43.2	43.2	75	35.8	0	4	90	0.00	29.776 
04:00	43.3	43.3	43.3	75	35.9	0	2	135	0.00	29.763 
04:05	43.2	43.2	43.2	75	35.8	0	2	135	0.00	29.763 
04:10	43.1	43.1	43.1	75	35.7	0	1	135	0.00	29.763 
04:15	42.9	42.9	42.9	75	35.5	0	1	135	0.00	29.758 
04:20	42.6	42.6	42.6	75	35.2	0	2	135	0.00	29.758 
04:25	42.6	42.6	42.6	76	35.6	0	3	90	0.00	29.758 
04:30	42.3	42.3	42.3	76	35.3	0	2	90	0.00	29.756 
04:35	42.3	42.3	42.3	76	35.3	0	1	90	0.00	29.756 
04:40	42.3	42.3	42.3	76	35.3	0	2	90	0.00	29.756 
04:45	42.3	42.3	42.3	76	35.3	1	3	90	0.00	29.748 
04:50	42.5	42.5	42.5	76	35.5	1	3	90	0.00	29.748 
04:55	42.8	42.8	42.8	76	35.8	1	4	135	0.00	29.748 
05:00	43.1	43.1	43.1	75	35.7	1	3	68	0.00	29.737 
05:05	43.2	43.2	43.2	75	35.8	1	4	90	0.00	29.737 
05:10	43.3	43.3	43.3	75	35.9	1	3	90	0.00	29.737 
05:15	43.3	43.3	43.3	75	35.9	1	3	90	0.00	29.736 
05:20	43.3	43.3	43.3	75	35.9	0	2	90	0.00	29.736 
05:25	43.3	43.3	43.3	75	35.9	1	4	90	0.00	29.736 
05:30	43.5	43.5	43.5	75	36.1	0	3	90	0.00	29.732 
05:35	43.5	43.5	43.5	75	36.1	1	3	90	0.00	29.732 
05:40	43.6	43.6	43.6	76	36.5	0	2	90	0.00	29.732 
05:45	43.9	43.9	43.9	75	36.5	1	3	90	0.00	29.732 
05:50	44.1	44.1	44.1	75	36.7	1	3	90	0.00	29.732 
05:55	44.2	44.2	44.2	75	36.8	1	6	112	0.00	29.732 
06:00	44.3	44.3	44.3	75	36.9	1	3	112	0.00	29.730 
06:05	44.3	44.3	44.3	75	36.9	0	3	90	0.00	29.730 
06:10	44.3	44.3	44.3	75	36.9	1	4	90	0.00	29.730 
06:15	44.5	44.5	44.5	74	36.7	1	3	90	0.00	29.727 
06:20	44.5	44.5	44.5	74	36.7	1	3	112	0.00	29.727 
06:25	44.5	44.5	44.5	74	36.7	0	2	112	0.00	29.727 
06:30	44.5	44.5	44.5	75	37.1	1	5	112	0.00	29.723 
06:35	44.5	44.5	44.5	75	37.1	1	5	112	0.00	29.723 
06:40	44.5	44.5	44.5	75	37.1	1	3	90	0.00	29.723 
06:45	44.5	44.5	44.5	75	37.1	1	3	90	0.00	29.718 
06:50	44.5	44.5	44.5	75	37.1	1	3	90	0.00	29.718 
06:55	44.5	44.5	44.5	75	37.1	1	3	90	0.00	29.718 
07:00	44.5	44.5	44.5	75	37.1	1	4	90	0.00	29.718 
07:05	44.5	44.5	44.5	75	37.1	0	2	90	0.00	29.718 
07:10	44.5	44.5	44.5	75	37.1	0	3	112	0.00	29.718 
07:15	44.5	44.5	44.5	75	37.1	1	3	112	0.00	29.717 
07:20	44.5	44.5	44.5	75	37.1	1	3	112	0.00	29.717 
07:25	44.5	44.5	44.5	75	37.1	1	3	90	0.00	29.717 
07:30	44.5	44.5	44.5	75	37.1	0	3	90	0.00	29.713 
07:35	44.5	44.5	44.5	75	37.1	0	3	68	0.00	29.713 
07:40	44.5	44.5	44.5	76	37.4	0	2	68	0.00	29.713 
07:45	44.5	44.5	44.5	76	37.4	0	3	68	0.00	29.713 
07:50	44.5	44.5	44.5	75	37.1	1	4	90	0.00	29.713 
07:55	44.3	44.3	44.3	75	36.9	0	2	90	0.00	29.713 
08:00	44.2	44.2	44.2	76	37.1	0	1	90	0.00	29.714 
08:05	44.1	44.1	44.1	76	37.0	0	2	90	0.00	29.714 
08:10	44.1	44.1	44.1	77	37.4	1	3	90	0.00	29.714 
08:15	43.9	43.9	43.9	77	37.2	0	3	90	0.00	29.714 
08:20	43.9	43.9	43.9	77	37.2	0	2	45	0.00	29.714 
08:25	43.9	43.9	43.9	77	37.2	0	2	45	0.00	29.714 
08:30	43.9	43.9	43.9	77	37.2	0	3	45	0.00	29.716 
08:35	43.9	43.9	43.9	77	37.2	0	4	90	0.00	29.716 
08:40	43.9	43.9	43.9	78	37.5	0	1	90	0.00	29.716 
08:45	43.9	43.9	43.9	78	37.5	0	1	90	0.00	29.720 
08:50	44.1	44.1	44.1	78	37.7	0	1	90	0.00	29.720 
08:55	44.2	44.2	44.2	78	37.8	0	2	90	0.00	29.720 
09:00	44.5	44.5	44.5	78	38.1	0	1	90	0.00	29.720 
09:05	44.8	44.8	44.8	78	38.4	0	2	0	0.00	29.720 
09:10	44.9	44.9	44.9	77	38.1	0	2	0	0.00	29.720 
09:15	45.1	45.1	45.1	77	38.3	0	1	0	0.00	29.722 
09:20	45.2	45.2	45.2	77	38.4	0	2	225	0.00	29.722 
09:25	45.5	45.5	45.5	77	38.7	0	2	225	0.00	29.722 
09:30	45.7	45.7	45.7	77	38.9	0	1	225	0.00	29.726 
09:35	45.8	45.8	45.8	77	39.0	0	2	225	0.00	29.726 
09:40	46.0	46.0	46.0	76	38.9	0	2	225	0.00	29.726 
09:45	46.2	46.2	46.2	76	39.1	0	2	225	0.00	29.730 
09:50	46.4	46.4	46.4	76	39.3	0	3	225	0.00	29.730 
09:55	46.5	46.5	46.5	76	39.3	0	2	225	0.00	29.730 
10:00	46.7	46.7	46.7	76	39.5	1	3	225	0.00	29.729 
10:05	46.8	46.8	46.8	76	39.6	0	3	225	0.00	29.729 
10:10	47.1	47.1	47.1	75	39.6	1	4	68	0.00	29.729 
10:15	47.3	47.3	47.3	75	39.8	1	5	68	0.00	29.727 
10:20	47.4	47.4	47.4	75	39.9	0	2	248	0.00	29.727 
10:25	47.6	47.6	47.6	74	39.7	1	4	248	0.00	29.727 
10:30	47.7	47.7	47.7	74	39.8	0	3	248	0.00	29.730 
10:35	47.7	47.7	47.7	74	39.8	1	3	248	0.00	29.730 
10:40	47.9	47.9	47.9	74	40.0	1	2	248	0.00	29.730 
10:45	47.9	47.9	47.9	74	40.0	0	3	248	0.00	29.729 
10:50	48.0	48.0	48.0	74	40.1	0	2	248	0.00	29.729 
10:55	48.0	48.0	48.0	74	40.1	1	3	248	0.00	29.729 
11:00	48.2	48.2	48.2	74	40.3	1	3	248	0.00	29.730 
11:05	48.3	48.3	48.3	74	40.4	1	3	248	0.00	29.730 
11:10	48.5	48.5	48.5	74	40.6	1	4	270	0.00	29.730 
11:15	48.6	48.6	48.6	74	40.7	1	7	248	0.00	29.723 
11:20	48.8	48.8	48.8	75	41.2	0	4	248	0.00	29.723 
11:25	49.1	49.1	49.1	75	41.5	1	4	248	0.00	29.723 
11:30	49.2	49.2	49.2	74	41.3	1	4	248	0.00	29.710 
11:35	49.5	49.5	49.5	74	41.6	1	3	248	0.00	29.710 
11:40	49.6	49.6	49.6	74	41.7	1	6	248	0.00	29.710 
11:45	49.8	49.8	49.8	74	41.9	1	5	248	0.00	29.701 
11:50	49.9	49.9	49.9	73	41.6	2	5	248	0.00	29.701 
11:55	50.1	50.1	50.1	73	41.8	2	4	248	0.00	29.701 
12:00	50.2	50.2	50.2	74	42.2	1	4	248	0.00	29.693 
12:05	50.4	50.4	50.4	74	42.4	1	4	248	0.00	29.693 
12:10	50.4	50.4	50.4	74	42.4	1	4	248	0.00	29.693 
12:15	50.5	50.5	50.5	74	42.5	1	4	248	0.00	29.692 
12:20	50.4	50.4	50.4	73	42.1	2	4	248	0.00	29.692 
12:25	50.4	50.4	50.4	74	42.4	1	4	225	0.00	29.692 
12:30	50.5	50.5	50.5	74	42.5	1	5	248	0.00	29.689 
12:35	50.4	50.4	50.4	74	42.4	3	6	248	0.00	29.689 
12:40	50.2	50.2	50.2	74	42.2	1	4	248	0.00	29.689 
12:45	50.1	50.1	50.1	75	42.5	1	4	248	0.00	29.697 
12:50	50.1	50.1	50.1	75	42.5	2	4	248	0.00	29.697 
12:55	49.8	49.8	49.8	75	42.2	2	5	248	0.00	29.697 
13:00	49.8	49.8	49.8	75	42.2	1	6	248	0.00	29.696 
13:05	49.8	49.8	49.8	76	42.5	2	5	248	0.00	29.696 
13:10	49.8	49.8	49.8	76	42.5	1	4	248	0.00	29.696 
13:15	49.8	49.8	49.8	76	42.5	1	5	248	0.00	29.693 
13:20	49.8	49.8	49.8	76	42.5	1	4	248	0.00	29.693 
13:25	49.8	49.8	49.8	76	42.5	1	3	248	0.00	29.693 
13:30	49.8	49.8	49.8	76	42.5	1	5	248	0.00	29.682 
13:35	49.9	49.9	49.9	76	42.6	1	3	248	0.00	29.682 
13:40	49.9	49.9	49.9	76	42.6	2	5	248	0.00	29.682 
13:45	50.1	50.1	50.1	76	42.8	2	5	248	0.00	29.683 
13:50	50.1	50.1	50.1	76	42.8	1	5	248	0.00	29.683 
13:55	50.2	50.2	50.2	75	42.6	1	5	248	0.00	29.683 
14:00	50.1	50.1	50.1	75	42.5	1	4	270	0.00	29.692 
14:05	50.1	50.1	50.1	75	42.5	1	4	292	0.00	29.692 
14:10	50.2	50.2	50.2	75	42.6	1	4	248	0.00	29.692 
14:15	50.2	50.2	50.2	75	42.6	1	4	248	0.00	29.681 
14:20	50.4	50.4	50.4	75	42.8	1	3	248	0.00	29.681 
14:25	50.5	50.5	50.5	74	42.5	2	6	248	0.00	29.681 
14:30	50.8	50.8	50.8	73	42.5	1	4	248	0.00	29.680 
14:35	50.8	50.8	50.8	72	42.1	1	3	248	0.00	29.680 
14:40	50.7	50.7	50.7	72	42.0	1	5	248	0.00	29.680 
14:45	50.5	50.5	50.5	72	41.8	1	4	248	0.00	29.683 
14:50	50.5	50.5	50.5	72	41.8	0	3	248	0.00	29.683 
14:55	50.7	50.7	50.7	72	42.0	2	4	270	0.00	29.683 
15:00	50.8	50.8	50.8	72	42.1	1	5	248	0.00	29.682 
15:05	51.0	51.0	51.0	71	41.9	2	5	248	0.00	29.682 
15:10	51.3	51.3	51.3	71	42.2	1	3	248	0.00	29.682 
15:15	51.4	51.4	51.4	70	41.9	1	4	248	0.00	29.690 
15:20	51.7	51.7	51.7	70	42.2	1	4	248	0.00	29.690 
15:25	51.9	51.9	51.9	69	42.1	1	4	248	0.00	29.690 
15:30	52.0	52.0	52.0	69	42.1	1	3	248	0.00	29.697 
15:35	52.0	52.0	52.0	69	42.1	1	5	248	0.00	29.697 
15:40	52.0	52.0	52.0	69	42.1	1	3	248	0.00	29.697 
15:45	52.0	52.0	52.0	68	41.8	2	6	248	0.00	29.700 
15:50	52.0	52.0	52.0	69	42.1	1	3	248	0.00	29.700 
15:55	51.9	51.9	51.9	69	42.1	1	3	248	0.00	29.700 
16:00	51.9	51.9	51.9	68	41.7	1	3	248	0.00	29.704 
16:05	51.9	51.9	51.9	68	41.7	1	3	248	0.00	29.704 
16:10	51.7	51.7	51.7	69	41.9	1	4	248	0.00	29.704 
16:15	51.7	51.7	51.7	69	41.9	1	3	248	0.00	29.710 
16:20	51.7	51.7	51.7	69	41.9	0	2	248	0.00	29.710 
16:25	51.6	51.6	51.6	69	41.8	1	3	248	0.00	29.710 
16:30	51.4	51.4	51.4	70	41.9	1	3	248	0.00	29.711 
16:35	51.3	51.3	51.3	70	41.9	0	3	248	0.00	29.711 
16:40	51.1	51.1	51.1	70	41.7	1	3	248	0.00	29.711 
16:45	51.0	51.0	51.0	71	41.9	0	2	248	0.00	29.722 
16:50	50.8	50.8	50.8	71	41.7	0	2	248	0.00	29.722 
16:55	50.5	50.5	50.5	72	41.8	0	2	248	0.00	29.722 
17:00	50.4	50.4	50.4	72	41.7	0	1	248	0.00	29.728 
17:05	50.1	50.1	50.1	73	41.8	0	1	248	0.00	29.728 
17:10	49.8	49.8	49.8	73	41.5	0	2	248	0.00	29.728 
17:15	49.5	49.5	49.5	73	41.2	0	0	---	0.00	29.732 
17:20	49.2	49.2	49.2	74	41.3	0	0	---	0.00	29.732 
17:25	48.9	48.9	48.9	75	41.3	0	1	248	0.00	29.732 
17:30	48.6	48.6	48.6	75	41.0	0	1	248	0.00	29.739 
17:35	48.3	48.3	48.3	76	41.1	0	1	248	0.00	29.739 
17:40	48.0	48.0	48.0	77	41.1	0	1	248	0.00	29.739 
17:45	47.9	47.9	47.9	77	41.0	0	1	248	0.00	29.743 
17:50	47.7	47.7	47.7	78	41.2	0	1	248	0.00	29.743 
17:55	47.7	47.7	47.7	78	41.2	0	1	248	0.00	29.743 
18:00	47.6	47.6	47.6	78	41.1	0	0	---	0.00	29.755 
18:05	47.6	47.6	47.6	79	41.4	0	1	248	0.00	29.755 
18:10	47.4	47.4	47.4	79	41.2	0	0	---	0.00	29.755 
18:15	47.3	47.3	47.3	79	41.1	0	1	248	0.00	29.765 
18:20	47.1	47.1	47.1	79	40.9	0	1	248	0.00	29.765 
18:25	46.8	46.8	46.8	80	41.0	0	0	---	0.00	29.765 
18:30	46.7	46.7	46.7	80	40.9	0	0	---	0.00	29.766 
18:35	46.4	46.4	46.4	80	40.6	0	0	---	0.00	29.766 
18:40	46.0	46.0	46.0	80	40.2	0	0	---	0.00	29.766 
18:45	45.7	45.7	45.7	81	40.2	0	0	---	0.00	29.772 
18:50	45.5	45.5	45.5	81	40.0	0	0	---	0.00	29.772 
18:55	45.1	45.1	45.1	82	39.9	0	0	---	0.00	29.772 
19:00	44.8	44.8	44.8	82	39.6	0	0	---	0.00	29.777 
19:05	44.5	44.5	44.5	83	39.7	0	0	---	0.00	29.777 
19:10	44.3	44.3	44.3	83	39.5	0	0	---	0.00	29.777 
19:15	44.2	44.2	44.2	84	39.7	0	0	---	0.00	29.781 
19:20	44.1	44.1	44.1	84	39.6	0	0	---	0.00	29.781 
19:25	44.1	44.1	44.1	85	39.9	0	0	---	0.00	29.781 
19:30	44.1	44.1	44.1	85	39.9	0	0	---	0.00	29.781 
19:35	44.1	44.1	44.1	86	40.2	0	0	---	0.00	29.781 
19:40	44.2	44.2	44.2	86	40.3	0	1	248	0.00	29.781 
19:45	44.3	44.3	44.3	87	40.7	0	0	---	0.00	29.785 
19:50	44.5	44.5	44.5	87	40.9	0	1	248	0.00	29.785 
19:55	44.5	44.5	44.5	87	40.9	0	0	---	0.00	29.785 
20:00	44.5	44.5	44.5	87	40.9	0	0	---	0.00	29.787 
20:05	44.5	44.5	44.5	87	40.9	0	0	---	0.00	29.787 
20:10	44.3	44.3	44.3	86	40.4	0	0	---	0.00	29.787 
20:15	44.2	44.2	44.2	86	40.3	0	0	---	0.00	29.796 
20:20	43.9	43.9	43.9	86	40.0	0	0	---	0.00	29.796 
20:25	43.6	43.6	43.6	86	39.7	0	0	---	0.00	29.796 
20:30	43.3	43.3	43.3	86	39.4	0	0	---	0.00	29.806 
20:35	43.1	43.1	43.1	87	39.5	0	0	---	0.00	29.806 
20:40	42.9	42.9	42.9	87	39.3	0	0	---	0.00	29.806 
20:45	42.8	42.8	42.8	88	39.5	0	0	---	0.00	29.810 
20:50	42.8	42.8	42.8	88	39.5	0	1	248	0.00	29.810 
20:55	42.8	42.8	42.8	88	39.5	0	1	248	0.00	29.810 
21:00	42.8	42.8	42.8	88	39.5	0	0	---	0.00	29.806 
21:05	42.8	42.8	42.8	88	39.5	0	0	---	0.00	29.806 
21:10	42.8	42.8	42.8	89	39.8	0	0	---	0.00	29.806 
21:15	42.8	42.8	42.8	89	39.8	0	0	---	0.00	29.808 
21:20	42.8	42.8	42.8	89	39.8	0	1	248	0.00	29.808 
21:25	42.8	42.8	42.8	89	39.8	0	1	248	0.00	29.808 
21:30	43.1	43.1	43.1	89	40.1	0	1	248	0.00	29.810 
21:35	43.1	43.1	43.1	89	40.1	0	1	248	0.00	29.810 
21:40	43.2	43.2	43.2	89	40.2	0	0	---	0.00	29.810 
21:45	43.2	43.2	43.2	89	40.2	0	1	248	0.00	29.809 
21:50	43.3	43.3	43.3	89	40.3	0	1	248	0.00	29.809 
21:55	43.3	43.3	43.3	89	40.3	0	0	---	0.00	29.809 
22:00	43.5	43.5	43.5	89	40.5	0	1	248	0.00	29.809 
22:05	43.5	43.5	43.5	89	40.5	0	0	---	0.00	29.809 
22:10	43.5	43.5	43.5	89	40.5	0	1	248	0.00	29.809 
22:15	43.6	43.6	43.6	88	40.3	0	1	248	0.00	29.815 
22:20	43.6	43.6	43.6	88	40.3	0	1	248	0.00	29.815 
22:25	43.6	43.6	43.6	88	40.3	0	1	248	0.00	29.815 
22:30	43.8	43.8	43.8	88	40.5	0	1	248	0.00	29.818 
22:35	43.8	43.8	43.8	88	40.5	0	1	248	0.00	29.818 
22:40	43.8	43.8	43.8	88	40.5	0	1	248	0.00	29.818 
22:45	43.8	43.8	43.8	88	40.5	0	1	248	0.00	29.811 
22:50	43.6	43.6	43.6	87	40.0	0	1	248	0.00	29.811 
22:55	43.6	43.6	43.6	87	40.0	0	1	248	0.00	29.811 
23:00	43.5	43.5	43.5	87	39.9	0	1	248	0.00	29.810 
23:05	43.5	43.5	43.5	87	39.9	0	0	---	0.00	29.810 
23:10	43.3	43.3	43.3	87	39.7	0	0	---	0.00	29.810 
23:15	43.2	43.2	43.2	87	39.6	0	0	---	0.00	29.811 
23:20	43.1	43.1	43.1	87	39.5	0	0	---	0.00	29.811 
23:25	43.1	43.1	43.1	88	39.8	0	1	248	0.00	29.811 
23:30	43.1	43.1	43.1	88	39.8	0	1	248	0.00	29.812 
23:35	43.1	43.1	43.1	88	39.8	0	1	248	0.00	29.812 
23:40	43.2	43.2	43.2	88	39.9	0	1	248	0.00	29.812 
23:45	43.3	43.3	43.3	88	40.0	0	1	248	0.00	29.810 
23:50	43.3	43.3	43.3	88	40.0	0	1	248	0.00	29.810 
23:55	43.3	43.3	43.3	88	40.0	0	2	248	0.00	29.810 

CoCoRaHS
IN-AL-39
A2 Web Hosting
Creative Commons License
GoDaddy
search engine by freefind advanced

loaded 2018-11-16 11:28:07 • last modified 2010-11-18 10:43:29
Privacy PolicyDisclaimer
• wx.awcolley.com is powered by PmWiki v.2002016 •
• all content (unless otherwise noted) © 2018 A W Colley